Erzurum, Turkey
Current Conditions -  °F | °C
As of 4:50 PM on Tuesday 21 Oct 2014 (Local Time) from LTCE Reporting Station
Clear Clear  
Wind Chill: 54°   Ceiling: Unl
Heat Index: 54°   Visibility: 6mi
Dew Point: 28°   Wind: 10mph
Humidity: 38%   Direction: 250°WSW
Pressure: 30.03"   Gusts: NA
Location:  39.91°N, 41.29°E
Report Text: LTCE 211350Z 25009KT CAVOK 12/M02 Q1017 NOSIG
Loading
Personal Weather Stations






























Interactive Weather Map
Tropical Storm Tracking
New forecast layout! Learn more

10-Day Weather Forecast

Advertisements
Track Severe Weather on mobile